createdAt,value
2016-10-20T00:00:12.437Z,29.19
2016-10-20T00:01:22.992Z,29.04
2016-10-20T00:02:34.204Z,29.06
2016-10-20T00:03:44.769Z,29.13
2016-10-20T00:04:55.335Z,29.07
2016-10-20T00:06:05.927Z,29.06
2016-10-20T00:07:16.477Z,29.01
2016-10-20T00:08:27.116Z,28.97
2016-10-20T00:09:37.692Z,28.95
2016-10-20T00:10:48.183Z,28.9
2016-10-20T00:11:58.689Z,28.88
2016-10-20T00:13:09.305Z,28.85
2016-10-20T00:14:20.001Z,28.84
2016-10-20T00:15:30.541Z,28.84
2016-10-20T00:16:41.081Z,28.78
2016-10-20T00:17:51.645Z,28.72
2016-10-20T00:19:02.196Z,28.69
2016-10-20T00:20:13.338Z,28.66
2016-10-20T00:21:23.808Z,28.69
2016-10-20T00:22:34.374Z,28.7
2016-10-20T00:23:44.924Z,28.7
2016-10-20T00:24:55.467Z,28.68
2016-10-20T00:26:05.996Z,28.54
2016-10-20T00:27:16.530Z,28.6
2016-10-20T00:28:27.094Z,28.51
2016-10-20T00:29:37.666Z,28.35
2016-10-20T00:30:48.223Z,28.35
2016-10-20T00:31:58.870Z,28.29
2016-10-20T00:33:09.428Z,28.23
2016-10-20T00:34:20.010Z,28.16
2016-10-20T00:35:30.579Z,28.07
2016-10-20T00:36:41.117Z,27.82
2016-10-20T00:37:51.627Z,27.84
2016-10-20T00:39:02.197Z,27.73
2016-10-20T00:40:12.728Z,27.51
2016-10-20T00:41:23.752Z,27.43
2016-10-20T00:42:34.313Z,27.5
2016-10-20T00:43:44.984Z,27.14
2016-10-20T00:44:55.529Z,27.17
2016-10-20T00:46:06.048Z,27.02
2016-10-20T00:47:16.589Z,27.04
2016-10-20T00:48:27.151Z,26.89
2016-10-20T00:49:37.696Z,26.87
2016-10-20T00:50:48.222Z,26.73
2016-10-20T00:51:58.759Z,26.65
2016-10-20T00:53:09.291Z,26.58
2016-10-20T00:54:19.869Z,26.61
2016-10-20T00:55:30.476Z,26.58
2016-10-20T00:56:41.008Z,26.58
2016-10-20T00:57:51.534Z,26.4
2016-10-20T00:59:02.104Z,26.28
2016-10-20T01:00:12.618Z,26.2
2016-10-20T01:01:23.139Z,26.21
2016-10-20T01:02:33.678Z,26.05
2016-10-20T01:03:44.196Z,26.02
2016-10-20T01:04:54.702Z,26.01
2016-10-20T01:06:05.243Z,26.02
2016-10-20T01:07:15.851Z,25.9
2016-10-20T01:08:26.405Z,25.84
2016-10-20T01:09:36.938Z,25.72
2016-10-20T01:10:47.490Z,25.72
2016-10-20T01:11:58.028Z,25.72
2016-10-20T01:13:08.556Z,25.62
2016-10-20T01:14:19.039Z,25.57
2016-10-20T01:15:30.045Z,25.39
2016-10-20T01:16:40.629Z,25.38
2016-10-20T01:17:51.189Z,25.44
2016-10-20T01:19:01.896Z,25.3
2016-10-20T01:20:12.454Z,25.37
2016-10-20T01:21:23.006Z,25.34
2016-10-20T01:22:33.610Z,25.2
2016-10-20T01:23:44.121Z,25.17
2016-10-20T01:24:54.672Z,25.15
2016-10-20T01:26:05.219Z,25.1
2016-10-20T01:27:15.757Z,25.12
2016-10-20T01:28:26.303Z,25.09
2016-10-20T01:29:36.838Z,25.1
2016-10-20T01:30:47.421Z,25.2
2016-10-20T01:31:57.965Z,25.13
2016-10-20T01:33:08.485Z,25.09
2016-10-20T01:34:19.513Z,25.07
2016-10-20T01:35:30.030Z,25.1
2016-10-20T01:36:40.632Z,25.13
2016-10-20T01:37:51.150Z,25.1
2016-10-20T01:39:01.702Z,25.12
2016-10-20T01:40:12.284Z,25.16
2016-10-20T01:41:22.842Z,25.1
2016-10-20T01:42:33.758Z,25.17
2016-10-20T01:43:44.272Z,25.13
2016-10-20T01:44:55.251Z,24.97
2016-10-20T01:46:06.263Z,25
2016-10-20T01:47:16.832Z,24.95
2016-10-20T01:48:27.509Z,24.98
2016-10-20T01:49:38.066Z,25
2016-10-20T01:50:48.570Z,24.95
2016-10-20T01:51:59.114Z,24.91
2016-10-20T01:53:09.669Z,24.97
2016-10-20T01:54:20.200Z,24.88
2016-10-20T01:55:30.728Z,24.94
2016-10-20T01:56:41.271Z,24.94
2016-10-20T01:57:51.840Z,24.8
2016-10-20T01:59:02.390Z,24.76
2016-10-20T02:00:13.040Z,24.73
2016-10-20T02:01:23.580Z,24.8
2016-10-20T02:02:34.121Z,24.87
2016-10-20T02:03:44.698Z,24.92
2016-10-20T02:04:55.258Z,24.79
2016-10-20T02:06:05.898Z,24.83
2016-10-20T02:07:16.437Z,24.75
2016-10-20T02:08:26.932Z,24.76
2016-10-20T02:09:37.452Z,24.61
2016-10-20T02:10:47.943Z,24.68
2016-10-20T02:11:58.464Z,24.6
2016-10-20T02:13:08.950Z,24.64
2016-10-20T02:14:19.448Z,24.77
2016-10-20T02:15:29.989Z,24.68
2016-10-20T02:16:40.532Z,24.79
2016-10-20T02:17:51.104Z,24.6
2016-10-20T02:19:01.634Z,24.63
2016-10-20T02:20:12.192Z,24.56
2016-10-20T02:21:22.780Z,24.54
2016-10-20T02:22:33.343Z,24.59
2016-10-20T02:23:44.024Z,24.52
2016-10-20T02:24:54.538Z,24.5
2016-10-20T02:26:05.078Z,24.61
2016-10-20T02:27:15.625Z,24.63
2016-10-20T02:28:26.206Z,24.52
2016-10-20T02:29:36.863Z,24.41
2016-10-20T02:30:47.427Z,24.41
2016-10-20T02:31:57.952Z,24.44
2016-10-20T02:33:08.511Z,24.44
2016-10-20T02:34:19.066Z,24.45
2016-10-20T02:35:29.623Z,24.47
2016-10-20T02:36:40.176Z,24.44
2016-10-20T02:37:50.743Z,24.44
2016-10-20T02:39:01.303Z,24.45
2016-10-20T02:40:11.863Z,24.37
2016-10-20T02:41:22.393Z,24.38
2016-10-20T02:42:33.004Z,24.32
2016-10-20T02:43:43.488Z,24.29
2016-10-20T02:44:54.045Z,24.23
2016-10-20T02:46:04.630Z,24.26
2016-10-20T02:47:15.179Z,24.26
2016-10-20T02:48:25.677Z,24.2
2016-10-20T02:49:36.249Z,24.23
2016-10-20T02:50:47.290Z,24.22
2016-10-20T02:51:57.851Z,24.16
2016-10-20T02:53:08.974Z,24.13
2016-10-20T02:54:19.533Z,24.1
2016-10-20T02:55:30.104Z,24.1
2016-10-20T02:56:40.638Z,24.13
2016-10-20T02:57:51.247Z,24.05
2016-10-20T02:59:01.788Z,24.16
2016-10-20T03:00:12.370Z,24.12
2016-10-20T03:01:22.895Z,24.19
2016-10-20T03:02:33.429Z,24.13
2016-10-20T03:03:43.959Z,24.13
2016-10-20T03:04:54.606Z,24.1
2016-10-20T03:06:05.121Z,24.1
2016-10-20T03:07:15.639Z,24.1
2016-10-20T03:08:26.154Z,24.16
2016-10-20T03:09:36.691Z,24.14
2016-10-20T03:10:47.239Z,24.13
2016-10-20T03:11:57.756Z,24.1
2016-10-20T03:13:08.293Z,24.1
2016-10-20T03:14:19.334Z,24.02
2016-10-20T03:15:29.863Z,24.01
2016-10-20T03:16:40.478Z,23.95
2016-10-20T03:17:51.030Z,23.94
2016-10-20T03:19:01.541Z,24.01
2016-10-20T03:20:12.061Z,24.08
2016-10-20T03:21:22.620Z,24.16
2016-10-20T03:22:33.111Z,24.08
2016-10-20T03:23:43.647Z,24.02
2016-10-20T03:24:54.172Z,24.1
2016-10-20T03:26:04.681Z,24.08
2016-10-20T03:27:15.740Z,24.07
2016-10-20T03:28:26.927Z,24.05
2016-10-20T03:29:37.483Z,24.13
2016-10-20T03:30:47.987Z,24.01
2016-10-20T03:31:58.542Z,23.97
2016-10-20T03:33:09.111Z,24.07
2016-10-20T03:34:20.161Z,24.02
2016-10-20T03:35:30.677Z,23.97
2016-10-20T03:36:41.240Z,24.05
2016-10-20T03:37:51.777Z,23.95
2016-10-20T03:39:02.308Z,23.9
2016-10-20T03:40:12.905Z,23.97
2016-10-20T03:41:23.495Z,23.97
2016-10-20T03:42:34.050Z,23.9
2016-10-20T03:43:44.606Z,23.97
2016-10-20T03:44:55.111Z,24
2016-10-20T03:46:05.660Z,24.01
2016-10-20T03:47:16.172Z,23.95
2016-10-20T03:48:26.733Z,23.98
2016-10-20T03:49:37.269Z,23.85
2016-10-20T03:50:47.819Z,23.82
2016-10-20T03:51:58.446Z,23.8
2016-10-20T03:53:08.913Z,23.79
2016-10-20T03:54:19.448Z,23.82
2016-10-20T03:55:29.997Z,23.75
2016-10-20T03:56:40.517Z,23.79
2016-10-20T03:57:51.522Z,23.83
2016-10-20T03:59:02.056Z,23.79
2016-10-20T04:00:12.594Z,23.75
2016-10-20T04:01:23.154Z,23.76
2016-10-20T04:02:33.667Z,23.83
2016-10-20T04:03:44.298Z,23.76
2016-10-20T04:04:54.830Z,23.8
2016-10-20T04:06:05.335Z,23.82
2016-10-20T04:07:15.854Z,23.76
2016-10-20T04:08:26.433Z,23.79
2016-10-20T04:09:36.909Z,23.71
2016-10-20T04:10:47.383Z,23.77
2016-10-20T04:11:57.864Z,23.77
2016-10-20T04:13:08.357Z,23.75
2016-10-20T04:14:18.860Z,23.76
2016-10-20T04:15:29.431Z,23.77
2016-10-20T04:16:39.942Z,23.8
2016-10-20T04:17:50.470Z,23.8
2016-10-20T04:19:00.984Z,23.86
2016-10-20T04:20:11.464Z,23.79
2016-10-20T04:21:21.979Z,23.85
2016-10-20T04:22:32.513Z,23.83
2016-10-20T04:23:43.004Z,23.67
2016-10-20T04:24:53.523Z,23.77
2016-10-20T04:26:04.092Z,23.68
2016-10-20T04:27:14.701Z,23.71
2016-10-20T04:28:25.187Z,23.71
2016-10-20T04:29:35.690Z,23.76
2016-10-20T04:30:46.204Z,23.79
2016-10-20T04:31:56.681Z,23.72
2016-10-20T04:33:07.209Z,23.77
2016-10-20T04:34:17.724Z,23.68
2016-10-20T04:35:28.224Z,23.76
2016-10-20T04:36:38.732Z,23.79
2016-10-20T04:37:49.208Z,23.79
2016-10-20T04:38:59.837Z,23.8
2016-10-20T04:40:10.389Z,23.85
2016-10-20T04:41:20.913Z,23.83
2016-10-20T04:42:31.437Z,23.89
2016-10-20T04:43:42.025Z,23.86
2016-10-20T04:44:52.526Z,23.79
2016-10-20T04:46:03.039Z,23.71
2016-10-20T04:47:13.602Z,23.58
2016-10-20T04:48:24.406Z,23.46
2016-10-20T04:49:34.876Z,23.57
2016-10-20T04:50:45.488Z,23.6
2016-10-20T04:51:55.969Z,23.58
2016-10-20T04:53:06.516Z,23.55
2016-10-20T04:54:17.553Z,23.47
2016-10-20T04:55:28.030Z,23.46
2016-10-20T04:56:38.621Z,23.43
2016-10-20T04:57:49.100Z,23.47
2016-10-20T04:58:59.620Z,23.53
2016-10-20T05:00:10.096Z,23.55
2016-10-20T05:01:20.674Z,23.5
2016-10-20T05:02:31.203Z,23.42
2016-10-20T05:03:41.709Z,23.5
2016-10-20T05:04:52.199Z,23.53
2016-10-20T05:06:02.729Z,23.55
2016-10-20T05:07:13.231Z,23.55
2016-10-20T05:08:23.827Z,23.55
2016-10-20T05:09:34.347Z,23.57
2016-10-20T05:10:44.863Z,23.6
2016-10-20T05:11:55.384Z,23.57
2016-10-20T05:13:05.924Z,23.57
2016-10-20T05:14:16.434Z,23.53
2016-10-20T05:15:26.986Z,23.57
2016-10-20T05:16:37.542Z,23.58
2016-10-20T05:17:48.109Z,23.46
2016-10-20T05:18:58.654Z,23.47
2016-10-20T05:20:09.339Z,23.53
2016-10-20T05:21:19.886Z,23.42
2016-10-20T05:22:30.390Z,23.45
2016-10-20T05:23:40.958Z,23.39
2016-10-20T05:24:51.507Z,23.38
2016-10-20T05:26:02.174Z,23.46
2016-10-20T05:27:12.726Z,23.5
2016-10-20T05:28:23.293Z,23.4
2016-10-20T05:29:33.843Z,23.4
2016-10-20T05:30:44.381Z,23.34
2016-10-20T05:31:54.936Z,23.42
2016-10-20T05:33:05.480Z,23.43
2016-10-20T05:34:16.047Z,23.38
2016-10-20T05:35:26.586Z,23.34
2016-10-20T05:36:37.198Z,23.38
2016-10-20T05:37:47.865Z,23.43
2016-10-20T05:38:58.447Z,23.34
2016-10-20T05:40:09.001Z,23.34
2016-10-20T05:41:19.548Z,23.31
2016-10-20T05:42:30.068Z,23.34
2016-10-20T05:43:40.581Z,23.43
2016-10-20T05:44:51.091Z,23.31
2016-10-20T05:46:01.554Z,23.29
2016-10-20T05:47:12.098Z,23.24
2016-10-20T05:48:22.582Z,23.2
2016-10-20T05:49:33.171Z,23.2
2016-10-20T05:50:43.686Z,23.14
2016-10-20T05:51:54.234Z,23.01
2016-10-20T05:53:04.749Z,23.2
2016-10-20T05:54:15.235Z,23.19
2016-10-20T05:55:25.739Z,23.26
2016-10-20T05:56:36.217Z,23.2
2016-10-20T05:57:46.719Z,23.15
2016-10-20T05:58:57.216Z,23.12
2016-10-20T06:00:08.203Z,23.14
2016-10-20T06:01:18.791Z,22.97
2016-10-20T06:02:29.316Z,23.11
2016-10-20T06:03:39.791Z,23.07
2016-10-20T06:04:50.306Z,23.05
2016-10-20T06:06:00.810Z,23.04
2016-10-20T06:07:11.299Z,23.08
2016-10-20T06:08:22.271Z,23.04
2016-10-20T06:09:32.775Z,23.02
2016-10-20T06:10:43.282Z,22.99
2016-10-20T06:11:53.801Z,22.97
2016-10-20T06:13:04.389Z,22.99
2016-10-20T06:14:14.884Z,23.01
2016-10-20T06:15:25.376Z,23.01
2016-10-20T06:16:35.895Z,23.04
2016-10-20T06:17:46.397Z,23.11
2016-10-20T06:18:56.932Z,23.04
2016-10-20T06:20:07.506Z,23.05
2016-10-20T06:21:18.081Z,22.92
2016-10-20T06:22:28.652Z,22.94
2016-10-20T06:23:39.231Z,22.92
2016-10-20T06:24:49.903Z,22.97
2016-10-20T06:26:00.484Z,22.93
2016-10-20T06:27:11.084Z,22.93
2016-10-20T06:28:21.667Z,22.87
2016-10-20T06:29:32.240Z,22.9
2016-10-20T06:30:42.811Z,22.92
2016-10-20T06:31:53.396Z,22.89
2016-10-20T06:33:04.466Z,22.83
2016-10-20T06:34:15.039Z,22.83
2016-10-20T06:35:25.615Z,22.92
2016-10-20T06:36:36.458Z,22.71
2016-10-20T06:37:47.052Z,22.75
2016-10-20T06:38:57.623Z,22.83
2016-10-20T06:40:08.193Z,22.78
2016-10-20T06:41:18.763Z,22.67
2016-10-20T06:42:29.374Z,22.67
2016-10-20T06:43:40.029Z,22.75
2016-10-20T06:44:50.597Z,22.78
2016-10-20T06:46:01.176Z,22.82
2016-10-20T06:47:11.742Z,22.8
2016-10-20T06:48:22.419Z,22.83
2016-10-20T06:49:32.990Z,22.8
2016-10-20T06:50:43.568Z,22.84
2016-10-20T06:51:54.082Z,22.83
2016-10-20T06:53:05.091Z,22.89
2016-10-20T06:54:15.633Z,22.96
2016-10-20T06:55:26.097Z,22.93
2016-10-20T06:56:36.599Z,22.96
2016-10-20T06:57:47.096Z,22.92
2016-10-20T06:58:57.592Z,22.86
2016-10-20T07:00:08.156Z,22.83
2016-10-20T07:01:18.634Z,22.84
2016-10-20T07:02:29.152Z,22.84
2016-10-20T07:03:39.655Z,22.84
2016-10-20T07:04:50.127Z,22.84
2016-10-20T07:06:00.617Z,22.83
2016-10-20T07:07:11.093Z,22.83
2016-10-20T07:08:21.621Z,22.62
2016-10-20T07:09:32.565Z,22.77
2016-10-20T07:10:43.092Z,22.78
2016-10-20T07:11:53.693Z,22.82
2016-10-20T07:13:04.214Z,22.75
2016-10-20T07:14:14.760Z,22.74
2016-10-20T07:15:25.663Z,22.77
2016-10-20T07:16:36.171Z,22.86
2016-10-20T07:17:46.652Z,22.77
2016-10-20T07:18:57.127Z,22.71
2016-10-20T07:20:07.627Z,22.68
2016-10-20T07:21:18.089Z,22.57
2016-10-20T07:22:28.595Z,22.44
2016-10-20T07:23:39.151Z,22.43
2016-10-20T07:24:49.653Z,22.32
2016-10-20T07:26:00.691Z,22.19
2016-10-20T07:27:11.231Z,22.23
2016-10-20T07:28:21.787Z,22.13
2016-10-20T07:29:32.366Z,22.06
2016-10-20T07:30:42.920Z,21.99
2016-10-20T07:31:53.466Z,21.83
2016-10-20T07:33:04.027Z,21.79
2016-10-20T07:34:14.545Z,21.78
2016-10-20T07:35:25.178Z,21.78
2016-10-20T07:36:35.748Z,21.64
2016-10-20T07:37:46.268Z,21.67
2016-10-20T07:38:56.815Z,21.64
2016-10-20T07:40:07.371Z,21.74
2016-10-20T07:41:18.461Z,21.72
2016-10-20T07:42:29.008Z,21.6
2016-10-20T07:43:39.616Z,21.59
2016-10-20T07:44:50.154Z,21.72
2016-10-20T07:46:00.701Z,21.67
2016-10-20T07:47:11.295Z,21.69
2016-10-20T07:48:21.830Z,21.66
2016-10-20T07:49:32.437Z,21.63
2016-10-20T07:50:42.982Z,21.61
2016-10-20T07:51:53.523Z,21.53
2016-10-20T07:53:04.636Z,21.5
2016-10-20T07:54:15.153Z,21.42
2016-10-20T07:55:25.683Z,21.38
2016-10-20T07:56:36.241Z,21.36
2016-10-20T07:57:46.820Z,21.38
2016-10-20T07:58:57.378Z,21.35
2016-10-20T08:00:07.903Z,21.36
2016-10-20T08:01:18.466Z,21.27
2016-10-20T08:02:29.034Z,21.27
2016-10-20T08:03:39.597Z,21.27
2016-10-20T08:04:50.111Z,21.16
2016-10-20T08:06:00.634Z,21.26
2016-10-20T08:07:11.209Z,21.21
2016-10-20T08:08:21.782Z,21.19
2016-10-20T08:09:32.336Z,21.13
2016-10-20T08:10:43.042Z,21.11
2016-10-20T08:11:53.570Z,21.19
2016-10-20T08:13:04.123Z,21.17
2016-10-20T08:14:14.664Z,21.2
2016-10-20T08:15:25.177Z,21.16
2016-10-20T08:16:35.818Z,21.2
2016-10-20T08:17:46.377Z,21.26
2016-10-20T08:18:56.898Z,21.23
2016-10-20T08:20:07.474Z,21.2
2016-10-20T08:21:17.973Z,21.17
2016-10-20T08:22:28.511Z,21.21
2016-10-20T08:23:39.033Z,21.11
2016-10-20T08:24:50.092Z,21.27
2016-10-20T08:26:00.672Z,21.35
2016-10-20T08:27:11.232Z,21.36
2016-10-20T08:28:21.790Z,21.34
2016-10-20T08:29:32.423Z,21.39
2016-10-20T08:30:42.947Z,21.32
2016-10-20T08:31:53.467Z,21.48
2016-10-20T08:33:03.953Z,21.53
2016-10-20T08:34:14.559Z,21.48
2016-10-20T08:35:25.033Z,21.46
2016-10-20T08:36:35.540Z,21.48
2016-10-20T08:37:46.041Z,21.54
2016-10-20T08:38:56.572Z,21.54
2016-10-20T08:40:07.036Z,21.56
2016-10-20T08:41:17.513Z,21.54
2016-10-20T08:42:27.988Z,21.56
2016-10-20T08:43:38.461Z,21.54
2016-10-20T08:44:48.947Z,21.69
2016-10-20T08:45:59.566Z,21.69
2016-10-20T08:47:10.053Z,21.67
2016-10-20T08:48:20.536Z,21.64
2016-10-20T08:49:31.047Z,21.72
2016-10-20T08:50:41.500Z,21.74
2016-10-20T08:51:52.089Z,21.76
2016-10-20T08:53:02.633Z,21.74
2016-10-20T08:54:13.116Z,21.83
2016-10-20T08:55:24.078Z,21.81
2016-10-20T08:56:34.535Z,21.78
2016-10-20T08:57:45.005Z,21.69
2016-10-20T08:58:55.511Z,21.67
2016-10-20T09:00:06.480Z,21.51
2016-10-20T09:01:16.966Z,21.21
2016-10-20T09:02:27.494Z,20.89
2016-10-20T09:03:38.080Z,20.77
2016-10-20T09:04:48.549Z,20.54
2016-10-20T09:05:59.070Z,20.54
2016-10-20T09:07:09.555Z,20.42
2016-10-20T09:08:20.073Z,20.35
2016-10-20T09:09:30.532Z,20.3
2016-10-20T09:10:41.003Z,20.25
2016-10-20T09:11:51.512Z,20.24
2016-10-20T09:13:02.037Z,20.18
2016-10-20T09:14:12.497Z,20.33
2016-10-20T09:15:23.076Z,20.31
2016-10-20T09:16:33.566Z,20.56
2016-10-20T09:17:44.551Z,20.53
2016-10-20T09:18:55.122Z,20.54
2016-10-20T09:20:05.667Z,20.64
2016-10-20T09:21:16.226Z,20.58
2016-10-20T09:22:26.700Z,20.53
2016-10-20T09:23:37.150Z,20.53
2016-10-20T09:24:48.139Z,20.58
2016-10-20T09:25:58.609Z,20.56
2016-10-20T09:27:09.116Z,20.59
2016-10-20T09:28:19.604Z,20.54
2016-10-20T09:29:30.149Z,20.62
2016-10-20T09:30:40.672Z,20.56
2016-10-20T09:31:51.155Z,20.68
2016-10-20T09:33:01.857Z,20.71
2016-10-20T09:34:12.367Z,20.59
2016-10-20T09:35:22.844Z,20.65
2016-10-20T09:36:33.380Z,20.71
2016-10-20T09:37:43.857Z,20.68
2016-10-20T09:38:54.463Z,20.65
2016-10-20T09:40:05.043Z,20.71
2016-10-20T09:41:15.595Z,20.69
2016-10-20T09:42:26.144Z,20.71
2016-10-20T09:43:36.667Z,20.69
2016-10-20T09:44:47.329Z,20.71
2016-10-20T09:45:57.868Z,20.65
2016-10-20T09:47:08.437Z,20.65
2016-10-20T09:48:18.980Z,20.68
2016-10-20T09:49:29.500Z,20.65
2016-10-20T09:50:40.112Z,20.64
2016-10-20T09:51:50.593Z,20.64
2016-10-20T09:53:01.153Z,20.59
2016-10-20T09:54:11.708Z,20.69
2016-10-20T09:55:22.258Z,20.69
2016-10-20T09:56:32.785Z,20.68
2016-10-20T09:57:43.329Z,20.72
2016-10-20T09:58:53.849Z,20.69
2016-10-20T10:00:04.348Z,20.71
2016-10-20T10:01:14.880Z,20.61
2016-10-20T10:02:25.472Z,20.65
2016-10-20T10:03:35.963Z,20.68
2016-10-20T10:04:46.500Z,20.62
2016-10-20T10:05:57.068Z,20.72
2016-10-20T10:07:07.615Z,20.72
2016-10-20T10:08:18.248Z,20.66
2016-10-20T10:09:28.841Z,20.76
2016-10-20T10:10:39.425Z,20.8
2016-10-20T10:11:49.962Z,20.9
2016-10-20T10:13:00.504Z,20.95
2016-10-20T10:14:11.002Z,20.89
2016-10-20T10:15:21.471Z,20.93
2016-10-20T10:16:32.020Z,20.96
2016-10-20T10:17:42.525Z,20.99
2016-10-20T10:18:52.999Z,21.01
2016-10-20T10:20:03.619Z,21.09
2016-10-20T10:21:14.115Z,21.02
2016-10-20T10:22:24.560Z,20.93
2016-10-20T10:23:35.069Z,20.95
2016-10-20T10:24:45.602Z,21.06
2016-10-20T10:25:56.186Z,21.08
2016-10-20T10:27:06.703Z,21.06
2016-10-20T10:28:17.161Z,21.17
2016-10-20T10:29:27.658Z,21.14
2016-10-20T10:30:38.156Z,21.09
2016-10-20T10:31:48.664Z,21.11
2016-10-20T10:32:59.255Z,21.09
2016-10-20T10:34:09.814Z,21.14
2016-10-20T10:35:20.329Z,21.29
2016-10-20T10:36:30.804Z,21.39
2016-10-20T10:37:41.393Z,21.39
2016-10-20T10:38:51.882Z,21.42
2016-10-20T10:40:02.378Z,21.53
2016-10-20T10:41:12.901Z,21.64
2016-10-20T10:42:23.388Z,21.9
2016-10-20T10:43:33.876Z,22.32
2016-10-20T10:44:44.406Z,22.92
2016-10-20T10:45:54.904Z,23.4
2016-10-20T10:47:05.426Z,23.75
2016-10-20T10:48:16.386Z,23.76
2016-10-20T10:49:26.991Z,23.98
2016-10-20T10:50:37.477Z,24.23
2016-10-20T10:51:47.971Z,24.34
2016-10-20T10:52:58.487Z,24.34
2016-10-20T10:54:09.002Z,24.54
2016-10-20T10:55:19.623Z,24.49
2016-10-20T10:56:30.150Z,24.61
2016-10-20T10:57:40.616Z,24.31
2016-10-20T10:58:51.128Z,24.26
2016-10-20T11:00:01.672Z,24.42
2016-10-20T11:01:12.191Z,24.79
2016-10-20T11:02:22.710Z,25.12
2016-10-20T11:03:33.476Z,25.54
2016-10-20T11:04:44.252Z,25.79
2016-10-20T11:05:55.433Z,25.97
2016-10-20T11:07:06.363Z,26.04
2016-10-20T11:08:17.169Z,26.2
2016-10-20T11:09:27.876Z,26.17
2016-10-20T11:10:38.643Z,26.24
2016-10-20T11:11:49.381Z,26.68
2016-10-20T11:13:00.335Z,26.89
2016-10-20T11:14:11.160Z,27.1
2016-10-20T11:15:21.998Z,27.16
2016-10-20T11:16:33.408Z,27.06
2016-10-20T11:17:44.263Z,27.29
2016-10-20T11:18:55.163Z,27.47
2016-10-20T11:20:06.577Z,27.5
2016-10-20T11:21:17.437Z,27.8
2016-10-20T11:22:28.306Z,27.85
2016-10-20T11:23:39.361Z,27.84
2016-10-20T11:24:50.491Z,27.98
2016-10-20T11:26:01.589Z,28.23
2016-10-20T11:27:12.494Z,28.35
2016-10-20T11:28:23.451Z,28.51
2016-10-20T11:29:34.810Z,28.63
2016-10-20T11:30:45.632Z,28.8
2016-10-20T11:31:56.498Z,29.04
2016-10-20T11:33:07.396Z,29.31
2016-10-20T11:34:18.266Z,29.59
2016-10-20T11:35:29.134Z,29.4
2016-10-20T11:36:40.116Z,29.18
2016-10-20T11:37:50.974Z,29.59
2016-10-20T11:39:01.832Z,30.26
2016-10-20T11:40:12.686Z,30.76
2016-10-20T11:41:23.511Z,31.02
2016-10-20T11:42:34.547Z,31.6
2016-10-20T11:43:45.240Z,31.61
2016-10-20T11:44:55.895Z,31.6
2016-10-20T11:46:06.625Z,31.68
2016-10-20T11:47:17.329Z,31.49
2016-10-20T11:48:28.001Z,31.43
2016-10-20T11:49:38.762Z,31.3
2016-10-20T11:50:49.467Z,31.57
2016-10-20T11:52:00.368Z,31.88
2016-10-20T11:53:11.564Z,32.37
2016-10-20T11:54:22.395Z,32.74
2016-10-20T11:55:33.253Z,32.73
2016-10-20T11:56:44.092Z,30.99
2016-10-20T11:57:55.400Z,31.06
2016-10-20T11:59:06.145Z,31.33
2016-10-20T12:00:17.042Z,31.58
2016-10-20T12:01:27.848Z,32.02
2016-10-20T12:02:38.580Z,31.58
2016-10-20T12:03:49.342Z,31.33
2016-10-20T12:05:00.107Z,31.28
2016-10-20T12:06:10.841Z,31.53
2016-10-20T12:07:21.520Z,31.53
2016-10-20T12:08:32.119Z,31.84
2016-10-20T12:09:42.806Z,31.62
2016-10-20T12:10:53.584Z,31.49
2016-10-20T12:12:04.466Z,31.67
2016-10-20T12:13:15.265Z,32.29
2016-10-20T12:14:25.862Z,32.7
2016-10-20T12:15:36.451Z,33.26
2016-10-20T12:16:47.038Z,33.14
2016-10-20T12:17:57.621Z,32.49
2016-10-20T12:19:08.200Z,32.33
2016-10-20T12:20:18.793Z,31.84
2016-10-20T12:21:29.380Z,31.72
2016-10-20T12:22:40.487Z,31.8
2016-10-20T12:23:51.183Z,32.22
2016-10-20T12:25:01.770Z,32.57
2016-10-20T12:26:12.352Z,32.96
2016-10-20T12:27:22.913Z,32.91
2016-10-20T12:28:33.441Z,32.62
2016-10-20T12:29:44.097Z,32.71
2016-10-20T12:30:54.636Z,33.1
2016-10-20T12:32:05.211Z,33.82
2016-10-20T12:33:16.591Z,34.17
2016-10-20T12:34:27.151Z,34.44
2016-10-20T12:35:37.812Z,34.45
2016-10-20T12:36:48.368Z,34.42
2016-10-20T12:37:58.927Z,34.64
2016-10-20T12:39:09.538Z,34.72
2016-10-20T12:40:20.092Z,34.22
2016-10-20T12:41:30.653Z,34.58
2016-10-20T12:42:41.662Z,34.46
2016-10-20T12:43:52.202Z,34.19
2016-10-20T12:45:02.751Z,33.9
2016-10-20T12:46:13.797Z,34.05
2016-10-20T12:47:24.981Z,33.98
2016-10-20T12:48:35.553Z,34.05
2016-10-20T12:49:46.146Z,33.94
2016-10-20T12:50:56.708Z,33.95
2016-10-20T12:52:07.285Z,34.11
2016-10-20T12:53:17.830Z,34.56
2016-10-20T12:54:28.347Z,34.61
2016-10-20T12:55:39.372Z,34.48
2016-10-20T12:56:50.410Z,34.45
2016-10-20T12:58:00.987Z,34.39
2016-10-20T12:59:11.633Z,34.58
2016-10-20T13:00:22.101Z,35.21
2016-10-20T13:01:32.652Z,35.63
2016-10-20T13:02:43.951Z,35.36
2016-10-20T13:03:54.474Z,34.95
2016-10-20T13:05:05.568Z,34.64
2016-10-20T13:06:16.038Z,34.72
2016-10-20T13:07:26.555Z,34.76
2016-10-20T13:08:37.048Z,34.57
2016-10-20T13:09:47.522Z,34.44
2016-10-20T13:10:58.147Z,33.89
2016-10-20T13:12:09.131Z,33.83
2016-10-20T13:13:19.653Z,34.04
2016-10-20T13:14:30.144Z,34.39
2016-10-20T13:15:40.661Z,34.38
2016-10-20T13:16:51.149Z,34.45
2016-10-20T13:18:01.667Z,34.19
2016-10-20T13:19:12.648Z,34.23
2016-10-20T13:20:23.164Z,34.5
2016-10-20T13:21:33.675Z,33.82
2016-10-20T13:22:44.307Z,34.02
2016-10-20T13:23:54.779Z,34.74
2016-10-20T13:25:05.298Z,35.02
2016-10-20T13:26:15.832Z,35.29
2016-10-20T13:27:26.310Z,35.26
2016-10-20T13:28:37.330Z,35.67
2016-10-20T13:29:47.881Z,35.17
2016-10-20T13:30:58.427Z,35.32
2016-10-20T13:32:08.916Z,35.51
2016-10-20T13:33:19.414Z,35.2
2016-10-20T13:34:30.053Z,35.4
2016-10-20T13:35:41.048Z,35.4
2016-10-20T13:36:51.600Z,35.62
2016-10-20T13:38:02.118Z,35.82
2016-10-20T13:39:12.657Z,35.91
2016-10-20T13:40:23.318Z,36.27
2016-10-20T13:41:33.900Z,36.39
2016-10-20T13:42:44.375Z,35.7
2016-10-20T13:43:54.907Z,35.81
2016-10-20T13:45:05.835Z,35.52
2016-10-20T13:46:16.472Z,35.72
2016-10-20T13:47:26.969Z,35.3
2016-10-20T13:48:37.477Z,35.02
2016-10-20T13:49:48.004Z,35.3
2016-10-20T13:50:58.495Z,35.67
2016-10-20T13:52:09.019Z,35.88
2016-10-20T13:53:19.545Z,36.07
2016-10-20T13:54:30.072Z,36.41
2016-10-20T13:55:40.612Z,36.27
2016-10-20T13:56:51.095Z,35.7
2016-10-20T13:58:01.679Z,35.54
2016-10-20T13:59:12.161Z,35.73
2016-10-20T14:00:22.646Z,35.13
2016-10-20T14:01:33.141Z,35.25
2016-10-20T14:02:43.640Z,35.25
2016-10-20T14:03:54.251Z,35.5
2016-10-20T14:05:04.738Z,35.58
2016-10-20T14:06:15.307Z,35.92
2016-10-20T14:07:25.866Z,36.08
2016-10-20T14:08:36.423Z,35.97
2016-10-20T14:09:46.947Z,36.07
2016-10-20T14:10:57.505Z,36.03
2016-10-20T14:12:08.056Z,35.77
2016-10-20T14:13:18.649Z,35.99
2016-10-20T14:14:29.185Z,36.36
2016-10-20T14:15:39.868Z,36.51
2016-10-20T14:16:50.411Z,36.24
2016-10-20T14:18:00.943Z,35.99
2016-10-20T14:19:11.565Z,36.06
2016-10-20T14:20:22.057Z,36.04
2016-10-20T14:21:32.694Z,36.2
2016-10-20T14:22:43.229Z,36.48
2016-10-20T14:23:53.771Z,36.95
2016-10-20T14:25:04.340Z,36.94
2016-10-20T14:26:14.873Z,37.04
2016-10-20T14:27:25.447Z,37.46
2016-10-20T14:28:36.524Z,37.58
2016-10-20T14:29:47.089Z,37.31
2016-10-20T14:30:57.635Z,36.79
2016-10-20T14:32:08.159Z,36.64
2016-10-20T14:33:19.276Z,36.85
2016-10-20T14:34:29.856Z,37.21
2016-10-20T14:35:40.433Z,37.46
2016-10-20T14:36:50.992Z,37.13
2016-10-20T14:38:02.088Z,36.41
2016-10-20T14:39:12.647Z,36.38
2016-10-20T14:40:23.220Z,36.72
2016-10-20T14:41:33.773Z,36.75
2016-10-20T14:42:44.828Z,36.75
2016-10-20T14:43:55.396Z,36.57
2016-10-20T14:45:06.060Z,36.73
2016-10-20T14:46:16.650Z,36.67
2016-10-20T14:47:27.211Z,36.85
2016-10-20T14:48:37.793Z,37.09
2016-10-20T14:49:48.867Z,36.56
2016-10-20T14:50:59.425Z,36.68
2016-10-20T14:52:09.988Z,36.97
2016-10-20T14:53:20.578Z,37.31
2016-10-20T14:54:31.187Z,37.51
2016-10-20T14:55:41.762Z,37.26
2016-10-20T14:56:52.407Z,37.28
2016-10-20T14:58:03.424Z,37.02
2016-10-20T14:59:13.993Z,37.09
2016-10-20T15:00:24.572Z,37.32
2016-10-20T15:01:35.143Z,37.47
2016-10-20T15:02:45.786Z,37.33
2016-10-20T15:04:15.602Z,37.23
2016-10-20T15:05:26.159Z,36.86
2016-10-20T15:06:36.712Z,36.26
2016-10-20T15:07:47.730Z,36.36
2016-10-20T15:08:58.335Z,36.73
2016-10-20T15:10:08.908Z,36.94
2016-10-20T15:11:19.476Z,37.29
2016-10-20T15:12:30.066Z,37.89